Time;durP1;ratioP1;P1;durP2;ratioP2;P2;SDS_P1;SDS_P2;PMS_P1;PMS_P2;Temp;Humidity;BMP_temperature;BMP_pressure;BME280_temperature;BME280_humidity;BME280_pressure;Samples;Min_cycle;Max_cycle;Signal;HPM_P1;HPM_P2
2022/01/15 00:01:44;;;;;;;53.90;20.60;;;;;;;;;;5035932;28;20185;-68
2022/01/15 00:04:09;;;;;;;45.03;19.50;;;;;;;;;;5042927;28;20255;-69
2022/01/15 00:06:35;;;;;;;43.07;18.63;;;;;;;;;;5042503;28;20173;-68
2022/01/15 00:09:00;;;;;;;44.63;18.30;;;;;;;;;;5042574;28;20181;-69
2022/01/15 00:11:26;;;;;;;40.23;17.87;;;;;;;;;;5043445;28;20181;-69
2022/01/15 00:13:56;;;;;;;44.10;18.73;;;;;;;;;;5049511;28;20204;-68
2022/01/15 00:16:44;;;;;;;46.27;18.37;;;;;;;;;;5049149;28;20181;-69
2022/01/15 00:19:12;;;;;;;42.57;16.70;;;;;;;;;;5048886;28;20228;-69
2022/01/15 00:21:38;;;;;;;40.97;17.47;;;;;;;;;;5048166;28;20314;-69
2022/01/15 00:24:03;;;;;;;42.70;17.37;;;;;;;;;;5050602;28;20931;-69
2022/01/15 00:26:29;;;;;;;39.00;17.33;;;;;;;;;;5050058;28;20572;-69
2022/01/15 00:28:54;;;;;;;39.53;16.77;;;;;;;;;;5051567;28;20648;-69
2022/01/15 00:31:19;;;;;;;46.10;17.07;;;;;;;;;;5047738;28;20213;-69
2022/01/15 00:33:45;;;;;;;35.33;16.13;;;;;;;;;;5052184;28;20548;-69
2022/01/15 00:36:10;;;;;;;39.73;16.77;;;;;;;;;;5048370;28;20189;-69
2022/01/15 00:38:36;;;;;;;39.30;17.40;;;;;;;;;;5052348;28;20211;-69
2022/01/15 00:41:01;;;;;;;41.43;17.37;;;;;;;;;;5046912;28;20633;-68
2022/01/15 00:43:27;;;;;;;42.33;17.97;;;;;;;;;;5052084;28;20227;-69
2022/01/15 00:45:52;;;;;;;41.70;17.47;;;;;;;;;;5048701;28;20200;-69
2022/01/15 00:48:18;;;;;;;36.17;17.50;;;;;;;;;;5051191;28;20193;-69
2022/01/15 00:50:43;;;;;;;38.37;16.67;;;;;;;;;;5048989;28;20197;-69
2022/01/15 00:53:09;;;;;;;41.50;16.33;;;;;;;;;;5050155;28;20201;-69
2022/01/15 00:55:34;;;;;;;34.70;16.63;;;;;;;;;;5050836;28;20585;-69
2022/01/15 00:57:59;;;;;;;37.53;16.73;;;;;;;;;;5051284;28;20291;-69
2022/01/15 01:00:27;;;;;;;39.53;17.73;;;;;;;;;;5045733;28;20247;-69
2022/01/15 01:02:53;;;;;;;38.27;18.03;;;;;;;;;;5049348;28;20229;-69
2022/01/15 01:05:20;;;;;;;42.80;17.57;;;;;;;;;;5048814;28;20697;-69
2022/01/15 01:07:45;;;;;;;40.13;17.63;;;;;;;;;;5049109;28;20270;-69
2022/01/15 01:23:52;;;;;;;47.60;19.20;;;;;;;;;;4984935;28;20206;-69
2022/01/15 01:26:29;;;;;;;42.30;18.93;;;;;;;;;;5033480;28;20571;-69
2022/01/15 01:29:12;;;;;;;52.53;20.40;;;;;;;;;;5048157;28;20655;-69
2022/01/15 01:31:51;;;;;;;47.93;20.40;;;;;;;;;;5043854;28;20567;-69
2022/01/15 01:34:17;;;;;;;52.10;21.17;;;;;;;;;;5045932;28;20189;-70
2022/01/15 01:37:03;;;;;;;50.43;21.70;;;;;;;;;;5045835;28;20189;-69
2022/01/15 01:39:39;;;;;;;53.83;23.17;;;;;;;;;;5041397;28;20189;-69
2022/01/15 01:42:55;;;;;;;58.30;22.63;;;;;;;;;;5048978;28;20637;-69
2022/01/15 01:45:06;;;;;;;53.07;23.87;;;;;;;;;;5039657;28;20197;-69
2022/01/15 01:47:39;;;;;;;51.57;22.37;;;;;;;;;;5047695;28;20894;-69
2022/01/15 01:50:13;;;;;;;54.03;23.93;;;;;;;;;;5043145;28;20173;-69
2022/01/15 01:52:39;;;;;;;47.73;22.17;;;;;;;;;;5050301;28;20250;-69
2022/01/15 01:55:06;;;;;;;48.50;22.43;;;;;;;;;;5044349;28;20185;-69
2022/01/15 01:57:32;;;;;;;48.40;21.77;;;;;;;;;;5047535;28;20205;-68
2022/01/15 01:59:58;;;;;;;46.57;22.03;;;;;;;;;;5043006;28;20477;-68
2022/01/15 02:02:23;;;;;;;52.30;22.93;;;;;;;;;;5042780;28;20332;-68
2022/01/15 02:04:48;;;;;;;54.27;23.53;;;;;;;;;;5045717;28;20181;-69
2022/01/15 02:07:17;;;;;;;55.83;22.50;;;;;;;;;;5047212;28;20234;-69
2022/01/15 02:09:42;;;;;;;48.77;21.73;;;;;;;;;;5044320;28;20221;-69
2022/01/15 02:12:08;;;;;;;48.97;22.07;;;;;;;;;;5046820;28;20639;-69
2022/01/15 02:14:33;;;;;;;46.33;20.60;;;;;;;;;;5043147;28;20711;-69
2022/01/15 02:16:59;;;;;;;49.37;21.50;;;;;;;;;;5046983;28;20178;-69
2022/01/15 02:19:30;;;;;;;42.50;20.60;;;;;;;;;;5042725;28;20206;-70
2022/01/15 02:24:39;;;;;;;48.03;20.90;;;;;;;;;;5045169;28;20204;-69
2022/01/15 02:27:05;;;;;;;51.90;21.13;;;;;;;;;;5044532;28;20182;-68
2022/01/15 02:29:30;;;;;;;43.70;20.43;;;;;;;;;;5045631;28;20200;-68
2022/01/15 02:31:55;;;;;;;47.87;20.77;;;;;;;;;;5046609;28;20240;-68
2022/01/15 02:34:21;;;;;;;46.13;20.43;;;;;;;;;;5046479;28;20546;-70
2022/01/15 02:36:46;;;;;;;41.10;19.30;;;;;;;;;;5046740;28;20276;-69
2022/01/15 02:39:11;;;;;;;45.70;20.10;;;;;;;;;;5045137;28;20572;-69
2022/01/15 02:41:38;;;;;;;42.93;19.23;;;;;;;;;;5042934;28;20189;-68
2022/01/15 02:44:10;;;;;;;43.47;18.93;;;;;;;;;;5044207;28;20201;-68
2022/01/15 02:48:00;;;;;;;48.23;19.90;;;;;;;;;;5046002;28;20170;-69
2022/01/15 02:49:22;;;;;;;43.53;19.80;;;;;;;;;;5043345;28;20282;-69
2022/01/15 02:51:48;;;;;;;40.10;18.63;;;;;;;;;;5045084;28;20189;-68
2022/01/15 02:54:13;;;;;;;39.07;17.83;;;;;;;;;;5041571;28;20197;-68
2022/01/15 02:56:43;;;;;;;35.23;16.37;;;;;;;;;;5047247;28;20200;-68
2022/01/15 02:59:15;;;;;;;41.57;17.87;;;;;;;;;;5042009;28;20202;-69
2022/01/15 03:01:40;;;;;;;37.43;17.43;;;;;;;;;;5043148;28;20188;-69
2022/01/15 03:04:05;;;;;;;38.17;17.10;;;;;;;;;;5040645;28;20190;-70
2022/01/15 03:06:31;;;;;;;36.33;17.30;;;;;;;;;;5038067;28;20186;-69
2022/01/15 03:08:56;;;;;;;34.73;15.77;;;;;;;;;;5045616;28;20188;-69
2022/01/15 03:11:22;;;;;;;41.47;17.13;;;;;;;;;;5044798;28;20267;-69
2022/01/15 03:13:48;;;;;;;39.37;17.00;;;;;;;;;;5047360;28;20190;-69
2022/01/15 03:16:17;;;;;;;37.20;17.03;;;;;;;;;;5043796;28;20196;-69
2022/01/15 03:18:42;;;;;;;36.70;15.90;;;;;;;;;;5045127;28;20248;-69
2022/01/15 03:21:08;;;;;;;38.30;17.33;;;;;;;;;;5042150;28;20661;-69
2022/01/15 03:23:33;;;;;;;40.70;17.50;;;;;;;;;;5047304;28;20621;-69
2022/01/15 03:25:59;;;;;;;43.07;19.23;;;;;;;;;;5044177;28;20643;-69
2022/01/15 03:28:24;;;;;;;42.17;18.53;;;;;;;;;;5044071;28;20259;-69
2022/01/15 03:30:50;;;;;;;41.67;19.03;;;;;;;;;;5042569;28;20212;-69
2022/01/15 03:33:15;;;;;;;47.20;19.57;;;;;;;;;;5045644;28;20212;-69
2022/01/15 03:35:43;;;;;;;47.40;19.33;;;;;;;;;;5041146;28;20721;-69
2022/01/15 03:38:08;;;;;;;43.87;19.17;;;;;;;;;;5047186;28;20546;-69
2022/01/15 03:40:35;;;;;;;45.40;19.97;;;;;;;;;;5039529;28;20209;-69
2022/01/15 03:43:02;;;;;;;48.03;20.10;;;;;;;;;;5040396;28;20189;-69
2022/01/15 03:45:28;;;;;;;48.03;21.07;;;;;;;;;;5042958;28;20528;-68
2022/01/15 03:47:56;;;;;;;48.67;21.90;;;;;;;;;;5047118;28;20189;-68
2022/01/15 03:50:22;;;;;;;48.77;21.70;;;;;;;;;;5040321;28;20205;-68
2022/01/15 03:52:47;;;;;;;47.13;20.37;;;;;;;;;;5040305;28;20591;-68
2022/01/15 03:55:14;;;;;;;52.13;21.43;;;;;;;;;;5043690;28;20185;-68
2022/01/15 03:57:40;;;;;;;41.00;17.57;;;;;;;;;;5048055;28;20201;-69
2022/01/15 04:00:09;;;;;;;48.83;19.50;;;;;;;;;;5041232;28;20220;-69
2022/01/15 04:02:35;;;;;;;48.67;20.70;;;;;;;;;;5048817;28;20271;-69
2022/01/15 04:05:00;;;;;;;41.30;17.93;;;;;;;;;;5039933;28;20178;-69
2022/01/15 04:07:25;;;;;;;46.07;19.83;;;;;;;;;;5046334;28;20358;-69
2022/01/15 04:09:50;;;;;;;46.73;18.20;;;;;;;;;;5043320;28;20539;-69
2022/01/15 04:12:16;;;;;;;37.33;17.60;;;;;;;;;;5044160;28;20204;-69
2022/01/15 04:14:41;;;;;;;44.63;19.00;;;;;;;;;;5041712;28;20278;-69
2022/01/15 04:17:07;;;;;;;44.27;19.30;;;;;;;;;;5036879;28;20633;-69
2022/01/15 04:19:34;;;;;;;45.70;19.27;;;;;;;;;;5041001;28;20552;-67
2022/01/15 04:21:59;;;;;;;40.97;17.80;;;;;;;;;;5042858;28;20649;-68
2022/01/15 04:24:24;;;;;;;44.67;19.40;;;;;;;;;;5043746;28;20178;-68
2022/01/15 04:26:50;;;;;;;44.60;19.07;;;;;;;;;;5042371;28;20180;-68
2022/01/15 04:29:15;;;;;;;44.10;19.37;;;;;;;;;;5041911;28;20177;-69
2022/01/15 04:31:48;;;;;;;47.97;19.90;;;;;;;;;;5043477;28;20681;-68
2022/01/15 04:34:24;;;;;;;45.17;19.57;;;;;;;;;;5041479;28;20181;-67
2022/01/15 04:36:52;;;;;;;42.87;18.70;;;;;;;;;;5041715;28;20209;-68
2022/01/15 04:39:18;;;;;;;43.43;18.67;;;;;;;;;;5042260;28;20232;-70
2022/01/15 04:41:43;;;;;;;47.37;19.47;;;;;;;;;;5047638;28;20214;-69
2022/01/15 04:44:09;;;;;;;39.47;17.80;;;;;;;;;;5040409;28;20178;-69
2022/01/15 04:46:36;;;;;;;46.30;19.03;;;;;;;;;;5038143;28;20612;-67
2022/01/15 04:49:02;;;;;;;51.17;20.47;;;;;;;;;;5041398;28;20569;-69
2022/01/15 04:51:28;;;;;;;44.20;19.90;;;;;;;;;;5044541;28;20189;-69
2022/01/15 04:53:53;;;;;;;46.87;19.30;;;;;;;;;;5041346;28;20248;-69
2022/01/15 04:56:18;;;;;;;46.07;19.83;;;;;;;;;;5042327;28;20224;-69
2022/01/15 04:58:44;;;;;;;44.10;18.83;;;;;;;;;;5046078;28;20248;-69
2022/01/15 05:01:09;;;;;;;44.93;18.87;;;;;;;;;;5046651;28;20259;-69
2022/01/15 05:03:34;;;;;;;43.80;19.40;;;;;;;;;;5048748;28;20567;-69
2022/01/15 05:06:00;;;;;;;43.03;17.53;;;;;;;;;;5046878;28;20182;-69
2022/01/15 05:08:25;;;;;;;42.80;18.20;;;;;;;;;;5046603;28;20189;-69
2022/01/15 05:10:53;;;;;;;43.80;17.87;;;;;;;;;;5046994;28;20272;-70
2022/01/15 05:13:23;;;;;;;41.73;18.13;;;;;;;;;;5043534;28;20581;-69
2022/01/15 05:15:48;;;;;;;40.03;17.80;;;;;;;;;;5045375;28;20189;-69
2022/01/15 05:18:14;;;;;;;39.80;16.70;;;;;;;;;;5045131;28;20213;-69
2022/01/15 05:20:43;;;;;;;36.20;15.43;;;;;;;;;;5048956;28;20557;-69
2022/01/15 05:23:09;;;;;;;39.67;15.73;;;;;;;;;;5046106;28;20210;-69
2022/01/15 05:25:34;;;;;;;37.33;15.60;;;;;;;;;;5048439;28;20273;-69
2022/01/15 05:27:59;;;;;;;30.63;14.27;;;;;;;;;;5045610;28;20190;-69
2022/01/15 05:30:25;;;;;;;33.83;15.13;;;;;;;;;;5047155;28;20197;-69
2022/01/15 05:32:50;;;;;;;29.27;12.87;;;;;;;;;;5046059;28;20212;-68
2022/01/15 05:35:16;;;;;;;30.07;12.20;;;;;;;;;;5046133;28;20220;-68
2022/01/15 05:37:41;;;;;;;28.97;12.47;;;;;;;;;;5045332;28;20724;-68
2022/01/15 05:40:07;;;;;;;26.67;11.67;;;;;;;;;;5045178;28;20265;-68
2022/01/15 05:42:33;;;;;;;25.43;11.60;;;;;;;;;;5045613;28;20278;-68
2022/01/15 05:44:58;;;;;;;24.20;11.27;;;;;;;;;;5047686;28;20181;-68
2022/01/15 05:47:23;;;;;;;22.83;10.87;;;;;;;;;;5045868;28;20185;-68
2022/01/15 05:49:49;;;;;;;24.67;11.60;;;;;;;;;;5046204;28;20238;-68
2022/01/15 05:52:14;;;;;;;28.30;12.37;;;;;;;;;;5043059;28;20182;-68
2022/01/15 05:54:40;;;;;;;25.83;11.93;;;;;;;;;;5046568;28;20246;-68
2022/01/15 05:57:05;;;;;;;28.20;12.13;;;;;;;;;;5045663;28;20231;-68
2022/01/15 05:59:30;;;;;;;29.13;13.03;;;;;;;;;;5042324;28;20208;-68
2022/01/15 06:01:56;;;;;;;30.00;12.93;;;;;;;;;;5046041;28;20233;-69
2022/01/15 06:04:21;;;;;;;27.30;13.23;;;;;;;;;;5044721;28;20574;-69
2022/01/15 06:06:47;;;;;;;25.77;11.80;;;;;;;;;;5044117;28;20209;-69
2022/01/15 06:09:13;;;;;;;26.00;11.80;;;;;;;;;;5045791;28;20196;-69
2022/01/15 06:11:40;;;;;;;27.23;11.77;;;;;;;;;;5045335;28;20173;-68
2022/01/15 06:14:05;;;;;;;16.67;8.27;;;;;;;;;;5048320;28;20498;-68
2022/01/15 06:16:31;;;;;;;14.97;7.37;;;;;;;;;;5044475;28;20530;-68
2022/01/15 06:18:56;;;;;;;12.53;6.33;;;;;;;;;;5046839;28;20244;-69
2022/01/15 06:21:21;;;;;;;13.30;7.30;;;;;;;;;;5041997;28;20189;-69
2022/01/15 06:23:47;;;;;;;16.07;7.43;;;;;;;;;;5041143;28;20189;-69
2022/01/15 06:26:13;;;;;;;17.20;7.07;;;;;;;;;;5044612;28;20260;-69
2022/01/15 06:28:39;;;;;;;14.53;7.27;;;;;;;;;;5044413;28;20632;-69
2022/01/15 06:31:04;;;;;;;13.50;6.63;;;;;;;;;;5043507;28;20220;-69
2022/01/15 06:33:30;;;;;;;13.10;6.10;;;;;;;;;;5043831;28;20198;-69
2022/01/15 06:35:55;;;;;;;14.90;6.40;;;;;;;;;;5045220;28;20196;-69
2022/01/15 06:38:21;;;;;;;13.70;6.90;;;;;;;;;;5045552;28;20221;-69
2022/01/15 06:40:46;;;;;;;11.07;5.77;;;;;;;;;;5045248;28;20198;-68
2022/01/15 06:43:11;;;;;;;10.17;5.70;;;;;;;;;;5044095;28;20199;-69
2022/01/15 06:45:37;;;;;;;10.00;5.73;;;;;;;;;;5045063;28;20189;-69
2022/01/15 06:48:02;;;;;;;11.97;6.00;;;;;;;;;;5042825;28;20189;-69
2022/01/15 06:50:29;;;;;;;11.73;5.57;;;;;;;;;;5045426;28;20198;-68
2022/01/15 06:52:55;;;;;;;11.10;6.27;;;;;;;;;;5042762;28;20192;-68
2022/01/15 06:55:21;;;;;;;9.13;5.03;;;;;;;;;;5044507;28;20556;-69
2022/01/15 06:57:47;;;;;;;8.67;5.13;;;;;;;;;;5043857;28;20198;-69
2022/01/15 07:00:13;;;;;;;7.30;4.40;;;;;;;;;;5045208;28;20188;-68
2022/01/15 07:02:39;;;;;;;9.30;5.33;;;;;;;;;;5042147;28;20224;-68
2022/01/15 07:05:06;;;;;;;9.33;5.07;;;;;;;;;;5043827;28;20243;-68
2022/01/15 07:07:32;;;;;;;8.50;5.13;;;;;;;;;;5042226;28;20190;-69
2022/01/15 07:09:57;;;;;;;10.77;6.23;;;;;;;;;;5042937;28;20182;-69
2022/01/15 07:12:23;;;;;;;9.93;5.73;;;;;;;;;;4352754;28;10000767;-68
2022/01/15 07:14:48;;;;;;;10.53;5.43;;;;;;;;;;5041178;28;20185;-68
2022/01/15 07:17:13;;;;;;;8.77;5.30;;;;;;;;;;5038943;28;20452;-68
2022/01/15 07:19:39;;;;;;;11.27;6.50;;;;;;;;;;5039534;28;20552;-69
2022/01/15 07:22:05;;;;;;;11.23;6.60;;;;;;;;;;5039163;28;20791;-68
2022/01/15 07:24:31;;;;;;;10.30;6.80;;;;;;;;;;5041199;28;21023;-69
2022/01/15 07:26:56;;;;;;;10.17;6.50;;;;;;;;;;5041325;28;20193;-68
2022/01/15 07:29:24;;;;;;;11.40;6.60;;;;;;;;;;5040968;28;20284;-68
2022/01/15 07:31:51;;;;;;;11.63;7.23;;;;;;;;;;5040010;28;20212;-69
2022/01/15 07:34:18;;;;;;;12.00;6.70;;;;;;;;;;5037616;28;20189;-69
2022/01/15 07:36:51;;;;;;;14.47;8.07;;;;;;;;;;5041066;28;20205;-69
2022/01/15 07:39:16;;;;;;;11.87;7.10;;;;;;;;;;5038185;28;20300;-69
2022/01/15 07:41:42;;;;;;;13.60;7.90;;;;;;;;;;5040279;28;20960;-69
2022/01/15 07:44:08;;;;;;;14.77;8.90;;;;;;;;;;5038205;28;20555;-69
2022/01/15 07:46:33;;;;;;;15.07;9.23;;;;;;;;;;5043930;28;20606;-69
2022/01/15 07:48:58;;;;;;;15.57;9.57;;;;;;;;;;5038312;28;20268;-67
2022/01/15 07:51:24;;;;;;;17.10;9.90;;;;;;;;;;5041982;28;20212;-68
2022/01/15 07:53:49;;;;;;;18.23;10.37;;;;;;;;;;5033018;28;20261;-68
2022/01/15 07:56:14;;;;;;;14.40;9.07;;;;;;;;;;5041312;28;20713;-68
2022/01/15 07:58:40;;;;;;;14.30;9.17;;;;;;;;;;5036784;28;20281;-68
2022/01/15 08:01:05;;;;;;;16.67;9.93;;;;;;;;;;5039044;28;20181;-68
2022/01/15 08:03:31;;;;;;;16.50;9.57;;;;;;;;;;5042815;28;20691;-68
2022/01/15 08:05:56;;;;;;;16.50;10.53;;;;;;;;;;5039161;28;20181;-69
2022/01/15 08:08:22;;;;;;;19.27;10.47;;;;;;;;;;5039341;28;20907;-69
2022/01/15 08:10:47;;;;;;;17.97;10.73;;;;;;;;;;5039567;28;20716;-68
2022/01/15 08:13:12;;;;;;;17.90;10.80;;;;;;;;;;5033205;28;20249;-68
2022/01/15 08:15:38;;;;;;;20.33;11.50;;;;;;;;;;5039541;28;20186;-68
2022/01/15 08:18:03;;;;;;;20.37;11.40;;;;;;;;;;5044776;28;20205;-68
2022/01/15 08:20:29;;;;;;;20.50;11.73;;;;;;;;;;5039161;28;20177;-68
2022/01/15 08:22:55;;;;;;;21.47;11.10;;;;;;;;;;5045066;28;20189;-68
2022/01/15 08:25:22;;;;;;;18.57;11.00;;;;;;;;;;5043607;28;20177;-68
2022/01/15 08:27:49;;;;;;;20.40;11.33;;;;;;;;;;5044267;28;20169;-68
2022/01/15 08:30:16;;;;;;;19.67;10.77;;;;;;;;;;5042741;28;20430;-69
2022/01/15 08:32:43;;;;;;;21.10;11.57;;;;;;;;;;5044193;28;20181;-68
2022/01/15 08:35:09;;;;;;;19.50;11.43;;;;;;;;;;5048090;28;20186;-69
2022/01/15 08:37:38;;;;;;;21.00;11.93;;;;;;;;;;5048259;28;20609;-69
2022/01/15 08:40:09;;;;;;;25.67;13.60;;;;;;;;;;5047736;28;20185;-68
2022/01/15 08:42:36;;;;;;;22.80;12.50;;;;;;;;;;5045779;28;20193;-68
2022/01/15 08:45:04;;;;;;;21.73;12.10;;;;;;;;;;5042923;28;20616;-68
2022/01/15 08:47:29;;;;;;;23.87;12.87;;;;;;;;;;5044665;28;20193;-68
2022/01/15 08:49:55;;;;;;;21.70;12.40;;;;;;;;;;5045630;28;20178;-68
2022/01/15 08:52:21;;;;;;;25.27;13.47;;;;;;;;;;5043055;28;20196;-68
2022/01/15 08:54:47;;;;;;;24.60;13.27;;;;;;;;;;5045408;28;20177;-68
2022/01/15 08:57:12;;;;;;;25.77;13.27;;;;;;;;;;5048423;28;20235;-68
2022/01/15 08:59:38;;;;;;;28.27;14.33;;;;;;;;;;5044752;28;20202;-69
2022/01/15 09:02:04;;;;;;;24.50;13.07;;;;;;;;;;5042355;28;20288;-69
2022/01/15 09:04:29;;;;;;;28.17;14.17;;;;;;;;;;5041510;28;20663;-69
2022/01/15 09:06:55;;;;;;;26.97;13.60;;;;;;;;;;5043411;28;20217;-69
2022/01/15 09:09:21;;;;;;;24.87;12.40;;;;;;;;;;5041487;28;20181;-69
2022/01/15 09:11:46;;;;;;;25.03;12.27;;;;;;;;;;5042808;28;20195;-69
2022/01/15 09:14:12;;;;;;;28.40;12.30;;;;;;;;;;5043856;28;20194;-70
2022/01/15 09:16:38;;;;;;;23.20;11.30;;;;;;;;;;5046188;28;20408;-69
2022/01/15 09:19:03;;;;;;;26.97;12.83;;;;;;;;;;5039127;28;20274;-68
2022/01/15 09:21:29;;;;;;;26.30;13.10;;;;;;;;;;5046697;28;20186;-68
2022/01/15 09:23:54;;;;;;;27.73;12.93;;;;;;;;;;5043345;28;20194;-68
2022/01/15 09:26:44;;;;;;;31.30;12.90;;;;;;;;;;5037910;28;20201;-68
2022/01/15 09:31:48;;;;;;;26.73;13.00;;;;;;;;;;5040760;28;20235;-68
2022/01/15 09:34:14;;;;;;;33.33;14.00;;;;;;;;;;5045345;28;20193;-68
2022/01/15 09:36:39;;;;;;;28.13;13.27;;;;;;;;;;5047948;28;20246;-68
2022/01/15 09:39:04;;;;;;;32.73;14.87;;;;;;;;;;5038976;28;20616;-68
2022/01/15 09:41:31;;;;;;;29.37;13.83;;;;;;;;;;5046539;28;20691;-68
2022/01/15 09:43:57;;;;;;;29.33;14.97;;;;;;;;;;5041670;28;20644;-68
2022/01/15 09:46:22;;;;;;;32.43;14.50;;;;;;;;;;5050099;28;20185;-69
2022/01/15 09:48:48;;;;;;;26.60;13.90;;;;;;;;;;5040268;28;20192;-69
2022/01/15 09:51:14;;;;;;;24.03;13.60;;;;;;;;;;5046625;28;20375;-69
2022/01/15 09:53:40;;;;;;;28.33;14.63;;;;;;;;;;5045159;28;20244;-69
2022/01/15 09:56:07;;;;;;;28.53;14.60;;;;;;;;;;5048026;28;20366;-69
2022/01/15 09:58:32;;;;;;;24.63;13.90;;;;;;;;;;5045670;28;20219;-69
2022/01/15 10:00:57;;;;;;;30.07;15.47;;;;;;;;;;5044550;28;20547;-69
2022/01/15 10:03:23;;;;;;;30.47;14.77;;;;;;;;;;5044979;28;20225;-68
2022/01/15 10:05:49;;;;;;;26.10;15.03;;;;;;;;;;5044535;28;20185;-69
2022/01/15 10:08:19;;;;;;;29.57;16.03;;;;;;;;;;5040707;28;20182;-69
2022/01/15 10:10:57;;;;;;;27.83;15.27;;;;;;;;;;5046907;28;20192;-69
2022/01/15 10:13:26;;;;;;;28.60;14.83;;;;;;;;;;5042363;28;20284;-69
2022/01/15 10:15:57;;;;;;;28.93;14.90;;;;;;;;;;5043820;28;20272;-69
2022/01/15 10:18:26;;;;;;;25.67;13.83;;;;;;;;;;5045697;28;20536;-68
2022/01/15 10:20:54;;;;;;;27.87;15.87;;;;;;;;;;5043810;28;20196;-68
2022/01/15 10:23:20;;;;;;;27.60;14.60;;;;;;;;;;5046205;28;20236;-69
2022/01/15 10:26:13;;;;;;;26.00;14.43;;;;;;;;;;5043051;28;20293;-69
2022/01/15 10:28:58;;;;;;;27.53;13.70;;;;;;;;;;5040932;28;20193;-67
2022/01/15 10:31:32;;;;;;;26.53;14.83;;;;;;;;;;5043776;28;20237;-69
2022/01/15 10:33:59;;;;;;;30.20;14.70;;;;;;;;;;5044883;28;20190;-69
2022/01/15 10:36:29;;;;;;;27.63;15.27;;;;;;;;;;5044168;28;20250;-69
2022/01/15 10:39:15;;;;;;;29.50;15.20;;;;;;;;;;5042879;28;20247;-69
2022/01/15 10:41:40;;;;;;;31.47;15.93;;;;;;;;;;5043704;28;20209;-69
2022/01/15 10:44:29;;;;;;;31.50;16.67;;;;;;;;;;5039304;28;20220;-69
2022/01/15 10:47:04;;;;;;;30.57;16.83;;;;;;;;;;5040854;28;20185;-69
2022/01/15 10:49:29;;;;;;;30.37;15.47;;;;;;;;;;5044435;28;20230;-69
2022/01/15 10:52:17;;;;;;;28.97;15.27;;;;;;;;;;5042799;28;20184;-68
2022/01/15 10:54:54;;;;;;;28.63;15.17;;;;;;;;;;5041007;28;20200;-68
2022/01/15 10:57:22;;;;;;;29.03;15.50;;;;;;;;;;5041556;28;20197;-68
2022/01/15 11:00:05;;;;;;;33.43;16.77;;;;;;;;;;5043444;28;20274;-68
2022/01/15 11:02:30;;;;;;;31.27;16.43;;;;;;;;;;5041576;28;20184;-68
2022/01/15 11:04:56;;;;;;;31.07;16.57;;;;;;;;;;5036637;28;20230;-68
2022/01/15 11:07:22;;;;;;;28.10;14.97;;;;;;;;;;5043837;28;20205;-69
2022/01/15 11:09:51;;;;;;;31.70;16.33;;;;;;;;;;5036484;28;20224;-68
2022/01/15 11:12:18;;;;;;;31.03;16.17;;;;;;;;;;5040734;28;20182;-68
2022/01/15 11:14:44;;;;;;;29.30;15.53;;;;;;;;;;5038705;28;20192;-68
2022/01/15 11:17:09;;;;;;;27.13;15.20;;;;;;;;;;5043805;28;20182;-68
2022/01/15 11:19:36;;;;;;;26.47;15.80;;;;;;;;;;5042816;28;20229;-68
2022/01/15 11:22:03;;;;;;;29.20;15.23;;;;;;;;;;5037910;28;20221;-68
2022/01/15 11:24:28;;;;;;;29.23;14.90;;;;;;;;;;5043733;28;20189;-69
2022/01/15 11:26:57;;;;;;;26.33;14.03;;;;;;;;;;5042539;28;20190;-69
2022/01/15 11:29:24;;;;;;;26.50;14.57;;;;;;;;;;5043164;28;20214;-69
2022/01/15 11:31:56;;;;;;;26.47;15.20;;;;;;;;;;5043668;28;20300;-69
2022/01/15 11:34:23;;;;;;;30.00;15.70;;;;;;;;;;5036762;28;20177;-69
2022/01/15 11:36:49;;;;;;;28.27;15.57;;;;;;;;;;5044416;28;20193;-69
2022/01/15 11:39:18;;;;;;;27.20;15.80;;;;;;;;;;5036949;28;20307;-69
2022/01/15 11:41:49;;;;;;;29.00;14.83;;;;;;;;;;5044397;28;20261;-69
2022/01/15 11:44:29;;;;;;;24.17;14.10;;;;;;;;;;5039645;28;20500;-69
2022/01/15 11:47:00;;;;;;;24.30;14.23;;;;;;;;;;5044702;28;20598;-69
2022/01/15 11:49:36;;;;;;;23.13;13.93;;;;;;;;;;5041157;28;20348;-68
2022/01/15 11:52:04;;;;;;;22.23;13.40;;;;;;;;;;5043605;28;20242;-68
2022/01/15 11:54:29;;;;;;;26.47;14.33;;;;;;;;;;5038596;28;20181;-68
2022/01/15 11:56:55;;;;;;;27.83;13.93;;;;;;;;;;5043233;28;20684;-68
2022/01/15 11:59:23;;;;;;;22.57;14.30;;;;;;;;;;5039335;28;20200;-69
2022/01/15 12:01:50;;;;;;;24.93;13.37;;;;;;;;;;5043428;28;20190;-68
2022/01/15 12:04:33;;;;;;;23.03;13.60;;;;;;;;;;5038789;28;21214;-68
2022/01/15 12:07:01;;;;;;;22.37;13.70;;;;;;;;;;5042376;28;20189;-68
2022/01/15 12:09:34;;;;;;;22.43;13.93;;;;;;;;;;5035319;28;20246;-68
2022/01/15 12:12:00;;;;;;;24.43;14.33;;;;;;;;;;5041099;28;20193;-69
2022/01/15 12:14:53;;;;;;;24.53;14.80;;;;;;;;;;5042724;28;20190;-69
2022/01/15 12:17:36;;;;;;;25.20;15.57;;;;;;;;;;5042775;28;20253;-68
2022/01/15 12:20:06;;;;;;;26.77;15.73;;;;;;;;;;5043694;28;20189;-67
2022/01/15 12:22:34;;;;;;;22.47;15.20;;;;;;;;;;5041168;28;20189;-68
2022/01/15 12:25:02;;;;;;;24.20;14.93;;;;;;;;;;5042288;28;20495;-68
2022/01/15 12:27:30;;;;;;;24.03;14.77;;;;;;;;;;5040701;28;20220;-68
2022/01/15 12:30:06;;;;;;;24.80;15.63;;;;;;;;;;5044781;28;20239;-68
2022/01/15 12:32:36;;;;;;;26.80;15.20;;;;;;;;;;5039883;28;20806;-68
2022/01/15 12:35:02;;;;;;;21.97;13.97;;;;;;;;;;5042060;28;20190;-68
2022/01/15 12:37:28;;;;;;;22.47;15.07;;;;;;;;;;5036868;28;20185;-68
2022/01/15 12:39:54;;;;;;;24.80;15.13;;;;;;;;;;5041951;28;20681;-68
2022/01/15 12:42:20;;;;;;;21.60;13.33;;;;;;;;;;5039607;28;20770;-68
2022/01/15 12:44:51;;;;;;;25.40;15.20;;;;;;;;;;5039396;28;20226;-68
2022/01/15 12:47:17;;;;;;;22.33;14.73;;;;;;;;;;5041460;28;20238;-67
2022/01/15 12:49:50;;;;;;;23.70;15.10;;;;;;;;;;5039199;28;20182;-67
2022/01/15 12:52:21;;;;;;;25.47;16.63;;;;;;;;;;5041478;28;20243;-67
2022/01/15 12:54:49;;;;;;;23.43;15.33;;;;;;;;;;5038051;28;20195;-68
2022/01/15 12:57:34;;;;;;;28.47;18.17;;;;;;;;;;5040127;28;20307;-67
2022/01/15 13:00:10;;;;;;;25.30;15.13;;;;;;;;;;5038882;28;20189;-68
2022/01/15 13:02:36;;;;;;;22.10;13.63;;;;;;;;;;5040811;28;20197;-67
2022/01/15 13:05:02;;;;;;;25.47;15.47;;;;;;;;;;5039339;28;20228;-68
2022/01/15 13:07:45;;;;;;;23.13;14.77;;;;;;;;;;5040595;28;20240;-68
2022/01/15 13:10:27;;;;;;;23.13;14.40;;;;;;;;;;5038933;28;20192;-68
2022/01/15 13:12:54;;;;;;;25.03;15.57;;;;;;;;;;5043238;28;20384;-68
2022/01/15 13:15:25;;;;;;;25.33;15.03;;;;;;;;;;5039251;28;20608;-68
2022/01/15 13:17:50;;;;;;;27.53;16.47;;;;;;;;;;5041721;28;20295;-68
2022/01/15 13:20:28;;;;;;;28.17;16.57;;;;;;;;;;5040782;28;20739;-68
2022/01/15 13:22:54;;;;;;;30.80;18.53;;;;;;;;;;5046040;28;20692;-68
2022/01/15 13:25:23;;;;;;;33.73;19.00;;;;;;;;;;5046610;28;20185;-68
2022/01/15 13:27:49;;;;;;;31.20;18.27;;;;;;;;;;5043168;28;20599;-68
2022/01/15 13:30:15;;;;;;;29.47;17.83;;;;;;;;;;5044510;28;20197;-68
2022/01/15 13:33:00;;;;;;;32.20;18.10;;;;;;;;;;5042625;28;20286;-68
2022/01/15 13:35:35;;;;;;;28.87;17.70;;;;;;;;;;5042232;28;20193;-68
2022/01/15 13:38:04;;;;;;;29.87;17.87;;;;;;;;;;5043009;28;20268;-68
2022/01/15 13:40:46;;;;;;;29.13;17.97;;;;;;;;;;5040535;28;20603;-69
2022/01/15 13:43:31;;;;;;;30.97;17.47;;;;;;;;;;5041878;28;20666;-67
2022/01/15 13:46:18;;;;;;;31.67;17.33;;;;;;;;;;5041501;28;20211;-67
2022/01/15 13:48:52;;;;;;;37.10;19.83;;;;;;;;;;5042347;28;20185;-67
2022/01/15 13:54:08;;;;;;;32.23;18.93;;;;;;;;;;5040924;28;20215;-68
2022/01/15 13:56:45;;;;;;;34.20;18.97;;;;;;;;;;5039972;28;20189;-68
2022/01/15 13:59:13;;;;;;;36.70;18.97;;;;;;;;;;5043449;28;20761;-68
2022/01/15 14:01:49;;;;;;;37.10;20.17;;;;;;;;;;5039609;28;20303;-68
2022/01/15 14:04:24;;;;;;;37.63;20.40;;;;;;;;;;5042466;28;20228;-68
2022/01/15 14:06:49;;;;;;;35.27;19.40;;;;;;;;;;5040998;28;20188;-68
2022/01/15 14:09:17;;;;;;;34.60;19.80;;;;;;;;;;5044078;28;20192;-69
2022/01/15 14:11:57;;;;;;;33.93;18.50;;;;;;;;;;5041444;28;20184;-68
2022/01/15 14:14:23;;;;;;;27.53;16.57;;;;;;;;;;5045144;28;20648;-68
2022/01/15 14:16:55;;;;;;;30.70;16.80;;;;;;;;;;5042291;28;20196;-68
2022/01/15 14:19:49;;;;;;;31.73;17.70;;;;;;;;;;5043742;28;20228;-68
2022/01/15 14:22:20;;;;;;;31.33;18.33;;;;;;;;;;5044909;28;20697;-68
2022/01/15 14:24:50;;;;;;;32.13;17.90;;;;;;;;;;5043519;28;20193;-68
2022/01/15 14:27:23;;;;;;;31.47;17.70;;;;;;;;;;5048484;28;20204;-68
2022/01/15 14:29:54;;;;;;;35.43;18.80;;;;;;;;;;5039744;28;20189;-68
2022/01/15 14:32:21;;;;;;;30.57;17.23;;;;;;;;;;5036842;28;20346;-68
2022/01/15 14:34:55;;;;;;;25.00;14.83;;;;;;;;;;5039590;28;20186;-69
2022/01/15 14:37:22;;;;;;;27.87;15.33;;;;;;;;;;5041646;28;20551;-68
2022/01/15 14:39:47;;;;;;;27.17;14.87;;;;;;;;;;5038256;28;20202;-68
2022/01/15 14:42:13;;;;;;;26.10;15.03;;;;;;;;;;5044006;28;20552;-68
2022/01/15 14:44:38;;;;;;;27.83;15.80;;;;;;;;;;5037632;28;20185;-68
2022/01/15 14:47:04;;;;;;;24.03;14.07;;;;;;;;;;5040682;28;20253;-68